Time;durP1;ratioP1;P1;durP2;ratioP2;P2;SDS_P1;SDS_P2;PMS_P1;PMS_P2;Temp;Humidity;BMP_temperature;BMP_pressure;BME280_temperature;BME280_humidity;BME280_pressure;Samples;Min_cycle;Max_cycle;Signal;HPM_P1;HPM_P2
2023/03/30 00:02:57;;;;;;;;;;;13.30;76.10;;;;;;9183895;19;19919;-68
2023/03/30 00:06:07;;;;;;;;;;;13.30;75.50;;;;;;9184710;19;19923;-69
2023/03/30 00:09:14;;;;;;;;;;;13.30;75.60;;;;;;9181216;19;19918;-68
2023/03/30 00:12:19;;;;;;;;;;;13.30;75.50;;;;;;9182772;19;19967;-68
2023/03/30 00:15:25;;;;;;;;;;;13.20;75.50;;;;;;9182776;19;19918;-69
2023/03/30 00:18:30;;;;;;;;;;;13.30;75.50;;;;;;9182976;19;19934;-68
2023/03/30 00:21:38;;;;;;;;;;;13.30;75.50;;;;;;9182832;19;19907;-68
2023/03/30 00:24:42;;;;;;;;;;;13.30;75.50;;;;;;9181449;19;20277;-69
2023/03/30 00:27:48;;;;;;;;;;;13.20;75.50;;;;;;9181908;19;19925;-68
2023/03/30 00:30:52;;;;;;;;;;;13.20;75.50;;;;;;9179796;19;19923;-69
2023/03/30 00:33:58;;;;;;;;;;;13.20;75.50;;;;;;9181355;19;20193;-69
2023/03/30 00:37:05;;;;;;;;;;;13.20;75.50;;;;;;9181144;19;20268;-69
2023/03/30 00:40:15;;;;;;;;;;;13.20;75.50;;;;;;9177470;19;20534;-68
2023/03/30 00:43:19;;;;;;;;;;;13.20;75.50;;;;;;9176455;19;20260;-69
2023/03/30 00:46:25;;;;;;;;;;;13.20;75.60;;;;;;9182062;19;19915;-69
2023/03/30 00:49:30;;;;;;;;;;;13.10;75.60;;;;;;9183214;19;20271;-69
2023/03/30 00:52:39;;;;;;;;;;;13.10;75.60;;;;;;9180563;19;19919;-69
2023/03/30 00:55:45;;;;;;;;;;;13.10;75.60;;;;;;9181248;19;19934;-69
2023/03/30 00:58:51;;;;;;;;;;;13.10;75.60;;;;;;9180783;19;19922;-69
2023/03/30 01:01:55;;;;;;;;;;;13.10;75.60;;;;;;9181250;19;19915;-69
2023/03/30 01:05:05;;;;;;;;;;;13.10;75.60;;;;;;9180534;19;19929;-69
2023/03/30 01:08:12;;;;;;;;;;;13.10;75.60;;;;;;9180641;19;19931;-69
2023/03/30 01:11:20;;;;;;;;;;;13.10;75.60;;;;;;9179818;19;19914;-69
2023/03/30 01:14:24;;;;;;;;;;;13.00;75.60;;;;;;9181037;19;20431;-69
2023/03/30 01:17:32;;;;;;;;;;;13.00;75.50;;;;;;9181369;19;20333;-69
2023/03/30 01:20:57;;;;;;;;;;;13.00;75.50;;;;;;9177735;19;19926;-69
2023/03/30 01:24:26;;;;;;;;;;;13.10;75.60;;;;;;9178123;19;20369;-69
2023/03/30 01:27:48;;;;;;;;;;;13.00;75.50;;;;;;9180143;19;19919;-69
2023/03/30 01:31:12;;;;;;;;;;;13.00;75.50;;;;;;9180706;19;19926;-69
2023/03/30 01:34:23;;;;;;;;;;;13.00;75.50;;;;;;9180714;19;19923;-69
2023/03/30 01:37:44;;;;;;;;;;;13.00;75.60;;;;;;9180015;19;19926;-69
2023/03/30 01:40:52;;;;;;;;;;;13.00;75.60;;;;;;9174929;19;19929;-69
2023/03/30 01:44:01;;;;;;;;;;;13.00;75.60;;;;;;9173545;19;19911;-69
2023/03/30 01:47:08;;;;;;;;;;;13.00;75.60;;;;;;9179963;19;20234;-69
2023/03/30 01:50:16;;;;;;;;;;;13.00;75.60;;;;;;9180477;19;19926;-69
2023/03/30 01:53:25;;;;;;;;;;;13.00;75.60;;;;;;9180618;19;20364;-69
2023/03/30 01:56:35;;;;;;;;;;;13.00;75.60;;;;;;9179978;19;19923;-69
2023/03/30 01:59:41;;;;;;;;;;;13.00;75.60;;;;;;9176379;19;19998;-69
2023/03/30 02:02:51;;;;;;;;;;;13.00;75.60;;;;;;9177845;19;19922;-69
2023/03/30 02:06:02;;;;;;;;;;;13.00;75.60;;;;;;9179762;19;19919;-69
2023/03/30 02:09:09;;;;;;;;;;;13.00;76.20;;;;;;9177721;19;19923;-69
2023/03/30 02:12:15;;;;;;;;;;;13.10;75.60;;;;;;9178734;19;20499;-69
2023/03/30 02:15:22;;;;;;;;;;;13.10;75.60;;;;;;9179492;19;19948;-69
2023/03/30 02:18:26;;;;;;;;;;;13.10;75.60;;;;;;9178920;19;19929;-69
2023/03/30 02:21:34;;;;;;;;;;;13.10;75.60;;;;;;9181526;19;19919;-70
2023/03/30 02:24:39;;;;;;;;;;;13.10;75.60;;;;;;9182926;19;20027;-69
2023/03/30 02:27:47;;;;;;;;;;;13.10;75.60;;;;;;9178984;19;19915;-69
2023/03/30 02:30:51;;;;;;;;;;;13.10;75.60;;;;;;9179061;19;19929;-69
2023/03/30 02:34:04;;;;;;;;;;;13.10;75.60;;;;;;9178489;19;19926;-69
2023/03/30 02:37:23;;;;;;;;;;;13.10;75.60;;;;;;9186558;19;20086;-69
2023/03/30 02:40:36;;;;;;;;;;;13.10;75.60;;;;;;9192139;19;20240;-69
2023/03/30 02:43:45;;;;;;;;;;;13.10;75.60;;;;;;9189376;19;19986;-69
2023/03/30 02:46:59;;;;;;;;;;;13.10;75.60;;;;;;9194779;19;19922;-69
2023/03/30 02:50:05;;;;;;;;;;;13.10;75.60;;;;;;9194470;19;19926;-69
2023/03/30 02:53:18;;;;;;;;;;;13.20;75.60;;;;;;9193907;19;19919;-69
2023/03/30 02:56:25;;;;;;;;;;;13.20;75.60;;;;;;9193476;19;19915;-69
2023/03/30 02:59:39;;;;;;;;;;;13.20;75.60;;;;;;9192808;19;19922;-69
2023/03/30 03:02:44;;;;;;;;;;;13.20;75.50;;;;;;9193401;19;19922;-69
2023/03/30 03:06:01;;;;;;;;;;;13.20;75.50;;;;;;9193173;19;19915;-69
2023/03/30 03:09:07;;;;;;;;;;;13.20;75.50;;;;;;9191328;19;20338;-69
2023/03/30 03:12:14;;;;;;;;;;;13.20;75.50;;;;;;9193474;19;19919;-69
2023/03/30 03:15:19;;;;;;;;;;;13.10;75.40;;;;;;9193998;19;19919;-69
2023/03/30 03:18:41;;;;;;;;;;;13.10;75.40;;;;;;9192331;19;19922;-69
2023/03/30 03:21:45;;;;;;;;;;;13.10;75.40;;;;;;9192471;19;20333;-69
2023/03/30 03:24:51;;;;;;;;;;;13.10;75.40;;;;;;9194374;19;20341;-69
2023/03/30 03:28:21;;;;;;;;;;;13.10;75.40;;;;;;9193864;19;19940;-69
2023/03/30 03:31:32;;;;;;;;;;;13.10;75.50;;;;;;9192611;19;19918;-69
2023/03/30 03:34:38;;;;;;;;;;;13.00;75.40;;;;;;9188246;19;19926;-69
2023/03/30 03:37:44;;;;;;;;;;;13.00;75.40;;;;;;9192323;19;19919;-69
2023/03/30 03:40:50;;;;;;;;;;;13.00;75.40;;;;;;9189522;19;19918;-69
2023/03/30 03:43:56;;;;;;;;;;;13.00;75.50;;;;;;9188498;19;19915;-69
2023/03/30 03:47:02;;;;;;;;;;;13.00;75.50;;;;;;9190588;19;19919;-69
2023/03/30 03:50:09;;;;;;;;;;;13.00;75.60;;;;;;9182793;19;19946;-69
2023/03/30 03:53:13;;;;;;;;;;;13.00;75.50;;;;;;9182246;19;20000;-69
2023/03/30 03:56:20;;;;;;;;;;;13.00;76.20;;;;;;9184517;19;19918;-69
2023/03/30 03:59:25;;;;;;;;;;;13.00;75.50;;;;;;9183067;19;20245;-69
2023/03/30 04:02:32;;;;;;;;;;;13.00;75.50;;;;;;9181368;19;19922;-69
2023/03/30 04:05:36;;;;;;;;;;;13.10;75.60;;;;;;9182718;19;20391;-69
2023/03/30 04:08:44;;;;;;;;;;;13.00;75.60;;;;;;9181612;19;19919;-69
2023/03/30 04:12:00;;;;;;;;;;;13.10;75.60;;;;;;9181535;19;19937;-69
2023/03/30 04:15:35;;;;;;;;;;;13.10;75.70;;;;;;9182488;19;19942;-69
2023/03/30 04:18:59;;;;;;;;;;;13.10;75.60;;;;;;9183458;19;19936;-69
2023/03/30 04:22:32;;;;;;;;;;;13.10;75.70;;;;;;9181909;19;20245;-69
2023/03/30 04:25:56;;;;;;;;;;;13.20;75.60;;;;;;9183219;19;19922;-69
2023/03/30 04:29:21;;;;;;;;;;;13.20;75.70;;;;;;9180745;19;19926;-69
2023/03/30 04:32:45;;;;;;;;;;;13.30;75.60;;;;;;9183392;19;20390;-70
2023/03/30 04:36:16;;;;;;;;;;;13.30;75.60;;;;;;9182174;19;20356;-69
2023/03/30 04:39:56;;;;;;;;;;;13.30;75.60;;;;;;9179523;19;19919;-69
2023/03/30 04:43:21;;;;;;;;;;;13.40;75.60;;;;;;9177711;19;20355;-70
2023/03/30 04:46:51;;;;;;;;;;;13.40;75.60;;;;;;9181291;19;20269;-69
2023/03/30 04:50:16;;;;;;;;;;;13.40;75.60;;;;;;9182255;19;19934;-69
2023/03/30 04:53:40;;;;;;;;;;;13.40;75.50;;;;;;9182322;19;20337;-69
2023/03/30 04:57:12;;;;;;;;;;;13.50;75.60;;;;;;9180199;19;19926;-68
2023/03/30 05:00:22;;;;;;;;;;;13.50;75.50;;;;;;9177062;19;19929;-68
2023/03/30 05:03:54;;;;;;;;;;;13.50;75.50;;;;;;9181519;19;19915;-68
2023/03/30 05:07:18;;;;;;;;;;;13.50;75.50;;;;;;9181058;19;19978;-68
2023/03/30 05:10:54;;;;;;;;;;;13.50;75.50;;;;;;9179696;19;19922;-68
2023/03/30 05:14:20;;;;;;;;;;;13.50;75.50;;;;;;9181190;19;19922;-68
2023/03/30 05:17:47;;;;;;;;;;;13.50;75.50;;;;;;9178849;19;20493;-68
2023/03/30 05:21:12;;;;;;;;;;;13.50;75.50;;;;;;9179056;19;19923;-68
2023/03/30 05:24:18;;;;;;;;;;;13.50;75.50;;;;;;9180833;19;19918;-68
2023/03/30 05:27:43;;;;;;;;;;;13.50;75.50;;;;;;9181199;19;20045;-68
2023/03/30 05:31:02;;;;;;;;;;;13.50;75.60;;;;;;9179035;19;19910;-68
2023/03/30 05:34:26;;;;;;;;;;;13.50;75.60;;;;;;9179410;19;19919;-69
2023/03/30 05:37:58;;;;;;;;;;;13.50;75.60;;;;;;9179009;19;19925;-68
2023/03/30 05:41:28;;;;;;;;;;;13.50;75.60;;;;;;9175746;19;19914;-68
2023/03/30 05:44:43;;;;;;;;;;;13.50;75.60;;;;;;9175047;19;20014;-68
2023/03/30 05:48:25;;;;;;;;;;;13.50;75.60;;;;;;9176665;19;19942;-68
2023/03/30 05:51:46;;;;;;;;;;;13.50;75.70;;;;;;9176311;19;19922;-68
2023/03/30 05:55:09;;;;;;;;;;;13.60;75.80;;;;;;9183046;19;19935;-69
2023/03/30 05:58:18;;;;;;;;;;;13.60;75.70;;;;;;9181760;19;20348;-68
2023/03/30 06:01:41;;;;;;;;;;;13.60;75.70;;;;;;9175228;19;20360;-69
2023/03/30 06:04:47;;;;;;;;;;;13.60;75.70;;;;;;9178276;19;20336;-68
2023/03/30 06:07:53;;;;;;;;;;;13.70;75.80;;;;;;9177431;19;19918;-68
2023/03/30 06:10:59;;;;;;;;;;;13.70;75.70;;;;;;9178271;19;19929;-69
2023/03/30 06:14:09;;;;;;;;;;;13.70;75.70;;;;;;9178045;19;19998;-68
2023/03/30 06:17:17;;;;;;;;;;;13.80;75.70;;;;;;9172728;19;20353;-68
2023/03/30 06:20:23;;;;;;;;;;;13.80;75.70;;;;;;9171901;19;19930;-68
2023/03/30 06:23:29;;;;;;;;;;;13.80;75.70;;;;;;9173692;19;19926;-69
2023/03/30 06:26:37;;;;;;;;;;;13.80;75.70;;;;;;9178011;19;19948;-68
2023/03/30 06:29:44;;;;;;;;;;;13.80;75.80;;;;;;9176918;19;19919;-68
2023/03/30 06:32:51;;;;;;;;;;;13.80;75.70;;;;;;9178296;19;19923;-68
2023/03/30 06:36:01;;;;;;;;;;;13.80;75.80;;;;;;9176163;19;19923;-70
2023/03/30 06:39:06;;;;;;;;;;;13.80;75.80;;;;;;9178529;19;19919;-70
2023/03/30 06:42:13;;;;;;;;;;;13.80;75.80;;;;;;9171310;19;19929;-70
2023/03/30 06:45:28;;;;;;;;;;;13.80;75.80;;;;;;9171166;19;20340;-70
2023/03/30 06:48:37;;;;;;;;;;;13.90;75.90;;;;;;9175114;19;20252;-70
2023/03/30 06:52:00;;;;;;;;;;;13.90;75.90;;;;;;9178293;19;19949;-70
2023/03/30 06:55:12;;;;;;;;;;;13.90;75.90;;;;;;9175815;19;20256;-70
2023/03/30 06:58:16;;;;;;;;;;;13.90;75.90;;;;;;9175976;19;19918;-70
2023/03/30 07:01:25;;;;;;;;;;;13.90;75.90;;;;;;9172619;19;20384;-70
2023/03/30 07:04:56;;;;;;;;;;;13.90;75.90;;;;;;9167037;19;19918;-70
2023/03/30 07:08:07;;;;;;;;;;;13.90;76.00;;;;;;9161482;19;19923;-70
2023/03/30 07:11:14;;;;;;;;;;;14.00;76.10;;;;;;9163555;19;19965;-70
2023/03/30 07:14:22;;;;;;;;;;;13.90;76.00;;;;;;9162165;19;19919;-70
2023/03/30 07:17:30;;;;;;;;;;;14.00;76.10;;;;;;9165787;19;20571;-70
2023/03/30 07:20:38;;;;;;;;;;;14.10;76.10;;;;;;9167963;19;19926;-70
2023/03/30 07:23:52;;;;;;;;;;;14.10;76.20;;;;;;9175513;19;20492;-70
2023/03/30 07:27:08;;;;;;;;;;;14.10;76.10;;;;;;9181562;19;19911;-70
2023/03/30 07:30:14;;;;;;;;;;;14.10;76.10;;;;;;9180841;19;19918;-70
2023/03/30 07:33:30;;;;;;;;;;;14.20;76.10;;;;;;9181239;19;19934;-70
2023/03/30 07:36:38;;;;;;;;;;;14.20;76.00;;;;;;9183580;19;19926;-70
2023/03/30 07:39:44;;;;;;;;;;;14.30;76.10;;;;;;9178011;19;19915;-70
2023/03/30 07:42:49;;;;;;;;;;;14.30;76.10;;;;;;9178619;19;19915;-70
2023/03/30 07:45:55;;;;;;;;;;;14.30;76.10;;;;;;9182792;19;19933;-70
2023/03/30 07:49:06;;;;;;;;;;;14.30;76.10;;;;;;9182704;19;20341;-70
2023/03/30 07:52:15;;;;;;;;;;;14.40;76.10;;;;;;9182185;19;19930;-70
2023/03/30 07:55:27;;;;;;;;;;;14.40;76.00;;;;;;9180480;19;19923;-71
2023/03/30 07:58:45;;;;;;;;;;;14.40;76.10;;;;;;9175570;19;20264;-71
2023/03/30 08:01:51;;;;;;;;;;;14.50;76.00;;;;;;9170571;19;20233;-70
2023/03/30 08:05:14;;;;;;;;;;;14.40;76.60;;;;;;9176030;19;19929;-70
2023/03/30 08:08:42;;;;;;;;;;;14.50;76.00;;;;;;9177111;19;20014;-70
2023/03/30 08:11:49;;;;;;;;;;;14.50;76.00;;;;;;9174635;19;19926;-70
2023/03/30 08:14:56;;;;;;;;;;;14.50;76.00;;;;;;9174021;19;20359;-71
2023/03/30 08:18:06;;;;;;;;;;;14.50;76.00;;;;;;9177052;19;19922;-72
2023/03/30 08:21:11;;;;;;;;;;;14.60;76.00;;;;;;9180611;19;19927;-72
2023/03/30 08:24:19;;;;;;;;;;;14.60;76.10;;;;;;9179037;19;19923;-72
2023/03/30 08:27:22;;;;;;;;;;;14.60;76.10;;;;;;9177399;19;19927;-72
2023/03/30 08:30:29;;;;;;;;;;;14.70;76.10;;;;;;9178228;19;19915;-71
2023/03/30 08:33:33;;;;;;;;;;;14.70;76.10;;;;;;9173609;19;19929;-72
2023/03/30 08:36:39;;;;;;;;;;;14.80;76.10;;;;;;9177012;19;19911;-72
2023/03/30 08:39:46;;;;;;;;;;;14.90;76.10;;;;;;9174387;19;19984;-72
2023/03/30 08:43:04;;;;;;;;;;;14.90;76.00;;;;;;9173223;19;19925;-74
2023/03/30 08:46:13;;;;;;;;;;;15.00;75.90;;;;;;9175451;19;19929;-72
2023/03/30 08:49:21;;;;;;;;;;;15.00;75.90;;;;;;9178119;19;19922;-72
2023/03/30 08:52:26;;;;;;;;;;;15.00;76.40;;;;;;9173257;19;19919;-72
2023/03/30 08:55:38;;;;;;;;;;;15.10;76.40;;;;;;9174413;19;19930;-71
2023/03/30 08:58:46;;;;;;;;;;;15.00;75.70;;;;;;9166894;19;19930;-71
2023/03/30 09:01:55;;;;;;;;;;;15.00;75.70;;;;;;9170880;19;19911;-70
2023/03/30 09:05:01;;;;;;;;;;;15.00;75.70;;;;;;9171246;19;19933;-70
2023/03/30 09:08:10;;;;;;;;;;;15.00;75.70;;;;;;9170739;19;20320;-70
2023/03/30 09:11:18;;;;;;;;;;;15.00;75.70;;;;;;9171033;19;19930;-70
2023/03/30 09:14:28;;;;;;;;;;;15.10;75.80;;;;;;9173304;19;20355;-70
2023/03/30 09:17:33;;;;;;;;;;;15.10;75.80;;;;;;9172932;19;19921;-70
2023/03/30 09:20:40;;;;;;;;;;;15.00;75.70;;;;;;9176034;19;19915;-70
2023/03/30 09:23:46;;;;;;;;;;;15.10;75.80;;;;;;9177777;19;19913;-70
2023/03/30 09:26:57;;;;;;;;;;;15.00;75.60;;;;;;9176513;19;20352;-69
2023/03/30 09:30:05;;;;;;;;;;;15.10;75.70;;;;;;9173286;19;19915;-69
2023/03/30 09:33:16;;;;;;;;;;;15.10;75.70;;;;;;9174813;19;19918;-69
2023/03/30 09:36:26;;;;;;;;;;;15.10;75.60;;;;;;9173970;19;19918;-69
2023/03/30 09:39:35;;;;;;;;;;;15.00;75.60;;;;;;9174951;19;19914;-69
2023/03/30 09:42:48;;;;;;;;;;;15.00;75.60;;;;;;9167922;19;19910;-69
2023/03/30 09:45:56;;;;;;;;;;;15.00;75.60;;;;;;9172761;19;19922;-69
2023/03/30 09:49:13;;;;;;;;;;;15.00;75.60;;;;;;9176030;19;19973;-69
2023/03/30 09:52:21;;;;;;;;;;;15.00;75.50;;;;;;9174152;19;19933;-69
2023/03/30 09:55:26;;;;;;;;;;;15.00;75.60;;;;;;9177597;19;19986;-68
2023/03/30 09:58:35;;;;;;;;;;;15.00;75.60;;;;;;9170686;19;20356;-69
2023/03/30 10:01:38;;;;;;;;;;;15.00;75.60;;;;;;9171883;19;19923;-69
2023/03/30 10:05:01;;;;;;;;;;;15.00;75.60;;;;;;9174349;19;19926;-69
2023/03/30 10:08:06;;;;;;;;;;;15.10;75.70;;;;;;9170877;19;19919;-69
2023/03/30 10:11:12;;;;;;;;;;;15.10;75.70;;;;;;9175104;19;19919;-69
2023/03/30 10:14:30;;;;;;;;;;;15.20;75.70;;;;;;9175125;19;19911;-69
2023/03/30 10:17:41;;;;;;;;;;;15.30;75.70;;;;;;9176347;19;19927;-69
2023/03/30 10:20:50;;;;;;;;;;;15.30;75.60;;;;;;9177374;19;19921;-69
2023/03/30 10:24:01;;;;;;;;;;;15.40;75.60;;;;;;9176063;19;19919;-70
2023/03/30 10:27:10;;;;;;;;;;;15.50;75.60;;;;;;9177971;19;19930;-70
2023/03/30 10:30:20;;;;;;;;;;;15.60;75.50;;;;;;9176660;19;19922;-64
2023/03/30 10:33:27;;;;;;;;;;;15.70;75.50;;;;;;9177359;19;19922;-62
2023/03/30 10:36:34;;;;;;;;;;;15.90;75.60;;;;;;9178002;19;20249;-70
2023/03/30 10:39:40;;;;;;;;;;;16.00;75.50;;;;;;9174749;19;20280;-69
2023/03/30 10:42:47;;;;;;;;;;;16.10;75.40;;;;;;9165577;19;20010;-69
2023/03/30 10:45:52;;;;;;;;;;;16.30;76.00;;;;;;9161119;19;19933;-72
2023/03/30 10:49:13;;;;;;;;;;;16.50;75.30;;;;;;9168044;19;19918;-70
2023/03/30 10:52:25;;;;;;;;;;;16.70;75.20;;;;;;9169201;19;19918;-70
2023/03/30 10:55:33;;;;;;;;;;;16.80;75.10;;;;;;9168882;19;20352;-70
2023/03/30 10:58:45;;;;;;;;;;;16.90;74.90;;;;;;9178010;19;19930;-70
2023/03/30 11:01:57;;;;;;;;;;;17.00;74.70;;;;;;9178287;19;19922;-70
2023/03/30 11:05:04;;;;;;;;;;;17.10;74.60;;;;;;9179776;19;20267;-64
2023/03/30 11:08:16;;;;;;;;;;;17.20;74.50;;;;;;9179935;19;20260;-65
2023/03/30 11:11:22;;;;;;;;;;;17.20;74.50;;;;;;9170392;19;20348;-66
2023/03/30 11:14:35;;;;;;;;;;;17.30;74.50;;;;;;9171404;19;19938;-66
2023/03/30 11:17:42;;;;;;;;;;;17.30;74.50;;;;;;9178152;19;19972;-65
2023/03/30 11:20:51;;;;;;;;;;;17.40;74.40;;;;;;9175711;19;19930;-66
2023/03/30 11:24:00;;;;;;;;;;;17.40;74.30;;;;;;9178233;19;19964;-68
2023/03/30 11:27:07;;;;;;;;;;;17.40;74.30;;;;;;9176792;19;19918;-67
2023/03/30 11:30:15;;;;;;;;;;;17.40;74.30;;;;;;9171402;19;19949;-66
2023/03/30 11:33:27;;;;;;;;;;;17.40;74.30;;;;;;9172678;19;20291;-67
2023/03/30 11:36:33;;;;;;;;;;;17.40;74.30;;;;;;9171164;19;19923;-68
2023/03/30 11:39:45;;;;;;;;;;;17.30;74.20;;;;;;9174594;19;19914;-68
2023/03/30 11:42:50;;;;;;;;;;;17.30;74.20;;;;;;9172485;19;19925;-67
2023/03/30 11:46:02;;;;;;;;;;;17.30;74.30;;;;;;9180432;19;19922;-66
2023/03/30 11:49:22;;;;;;;;;;;17.30;74.30;;;;;;9183591;19;19915;-65
2023/03/30 11:52:32;;;;;;;;;;;17.30;74.20;;;;;;9182410;19;19925;-66
2023/03/30 11:55:47;;;;;;;;;;;17.30;74.10;;;;;;9182850;19;19918;-66
2023/03/30 11:58:59;;;;;;;;;;;17.30;74.10;;;;;;9182682;19;20265;-65
2023/03/30 12:02:07;;;;;;;;;;;17.10;73.90;;;;;;9181189;19;20260;-63
2023/03/30 12:05:18;;;;;;;;;;;17.20;74.00;;;;;;9178201;19;19930;-63
2023/03/30 12:08:27;;;;;;;;;;;17.10;73.90;;;;;;9179664;19;19922;-63
2023/03/30 12:11:39;;;;;;;;;;;17.10;73.90;;;;;;9170024;19;20341;-63
2023/03/30 12:14:52;;;;;;;;;;;17.00;73.90;;;;;;9174073;19;19919;-63
2023/03/30 12:18:01;;;;;;;;;;;16.90;73.90;;;;;;9175501;19;19922;-64
2023/03/30 12:21:15;;;;;;;;;;;16.90;74.00;;;;;;9178884;19;19997;-63
2023/03/30 12:24:24;;;;;;;;;;;16.80;73.90;;;;;;9180073;19;19921;-63
2023/03/30 12:27:32;;;;;;;;;;;16.80;73.90;;;;;;9178455;19;19938;-64
2023/03/30 12:30:42;;;;;;;;;;;16.80;73.90;;;;;;9180134;19;19919;-65
2023/03/30 12:33:48;;;;;;;;;;;16.80;73.90;;;;;;9177289;19;19925;-65
2023/03/30 12:36:56;;;;;;;;;;;16.80;73.90;;;;;;9174394;19;19918;-64
2023/03/30 12:40:05;;;;;;;;;;;16.80;73.90;;;;;;9175250;19;19918;-65
2023/03/30 12:43:18;;;;;;;;;;;16.80;73.90;;;;;;9171686;19;19930;-64
2023/03/30 12:46:27;;;;;;;;;;;16.80;73.90;;;;;;9178019;19;19918;-64
2023/03/30 12:49:38;;;;;;;;;;;16.70;73.90;;;;;;9178020;19;20269;-64
2023/03/30 12:52:48;;;;;;;;;;;16.80;73.90;;;;;;9176563;19;19923;-64
2023/03/30 12:56:00;;;;;;;;;;;16.80;73.80;;;;;;9172586;19;19934;-64
2023/03/30 12:59:25;;;;;;;;;;;16.80;73.80;;;;;;9179390;19;20496;-65
2023/03/30 13:02:39;;;;;;;;;;;16.80;73.80;;;;;;9177757;19;19915;-64
2023/03/30 13:05:44;;;;;;;;;;;16.80;73.80;;;;;;9175423;19;19929;-65
2023/03/30 13:08:54;;;;;;;;;;;16.80;73.70;;;;;;9175520;19;19918;-65
2023/03/30 13:12:21;;;;;;;;;;;16.90;73.80;;;;;;9178449;19;19927;-65
2023/03/30 13:15:36;;;;;;;;;;;16.90;73.80;;;;;;9171871;19;19915;-65
2023/03/30 13:18:53;;;;;;;;;;;16.90;73.80;;;;;;9177682;19;20356;-65
2023/03/30 13:22:05;;;;;;;;;;;16.90;73.70;;;;;;9172847;19;19934;-69
2023/03/30 13:25:24;;;;;;;;;;;17.00;73.70;;;;;;9172572;19;19930;-66
2023/03/30 13:28:44;;;;;;;;;;;17.10;73.70;;;;;;9175776;19;19954;-65
2023/03/30 13:32:04;;;;;;;;;;;17.10;73.60;;;;;;9174802;19;19918;-66
2023/03/30 13:35:27;;;;;;;;;;;17.20;73.50;;;;;;9175470;19;20304;-65
2023/03/30 13:38:34;;;;;;;;;;;17.20;73.50;;;;;;9175704;19;19919;-67
2023/03/30 13:41:46;;;;;;;;;;;17.30;73.50;;;;;;9171517;19;19918;-67
2023/03/30 13:44:53;;;;;;;;;;;17.30;73.40;;;;;;9170947;19;19978;-66
2023/03/30 13:48:11;;;;;;;;;;;17.30;73.40;;;;;;9179405;19;19933;-69
2023/03/30 13:51:16;;;;;;;;;;;17.30;73.40;;;;;;9175774;19;19914;-65
2023/03/30 13:54:25;;;;;;;;;;;17.30;73.30;;;;;;9180039;19;20375;-66
2023/03/30 13:57:32;;;;;;;;;;;17.20;73.20;;;;;;9176830;19;19918;-67
2023/03/30 14:00:42;;;;;;;;;;;17.20;73.20;;;;;;9176359;19;20674;-67
2023/03/30 14:03:51;;;;;;;;;;;17.20;73.30;;;;;;9176790;19;19919;-66
2023/03/30 14:06:57;;;;;;;;;;;17.10;73.20;;;;;;9175196;19;19911;-65
2023/03/30 14:10:06;;;;;;;;;;;17.00;73.20;;;;;;9171019;19;19923;-66
2023/03/30 14:13:12;;;;;;;;;;;16.90;73.20;;;;;;9171031;19;19927;-66
2023/03/30 14:16:22;;;;;;;;;;;16.90;73.30;;;;;;9176067;19;19922;-66
2023/03/30 14:19:33;;;;;;;;;;;16.80;73.30;;;;;;9176116;19;19915;-66
2023/03/30 14:22:39;;;;;;;;;;;16.70;73.30;;;;;;9174309;19;19937;-66
2023/03/30 14:25:46;;;;;;;;;;;16.70;73.40;;;;;;9176146;19;19921;-65
2023/03/30 14:28:50;;;;;;;;;;;16.60;73.40;;;;;;9176079;19;20019;-65
2023/03/30 14:31:56;;;;;;;;;;;16.50;73.40;;;;;;9174461;19;19915;-66
2023/03/30 14:35:21;;;;;;;;;;;16.50;73.40;;;;;;9175790;19;19915;-66
2023/03/30 14:38:29;;;;;;;;;;;16.40;73.40;;;;;;9174909;19;19919;-66
2023/03/30 14:41:33;;;;;;;;;;;16.30;73.40;;;;;;9172583;19;20253;-66
2023/03/30 14:44:40;;;;;;;;;;;16.30;73.50;;;;;;9170308;19;19926;-67
2023/03/30 14:47:44;;;;;;;;;;;16.30;73.60;;;;;;9172491;19;19919;-66
2023/03/30 14:50:52;;;;;;;;;;;16.20;73.60;;;;;;9173979;19;19925;-66
2023/03/30 14:53:56;;;;;;;;;;;16.30;73.70;;;;;;9170271;19;20342;-67
2023/03/30 14:57:03;;;;;;;;;;;16.30;73.70;;;;;;9177401;19;19914;-66
2023/03/30 15:00:21;;;;;;;;;;;16.30;73.70;;;;;;9166409;19;19978;-67
2023/03/30 15:03:28;;;;;;;;;;;16.40;73.70;;;;;;9164621;19;19938;-66
2023/03/30 15:06:40;;;;;;;;;;;16.40;73.60;;;;;;9172734;19;19922;-66
2023/03/30 15:09:46;;;;;;;;;;;16.40;73.50;;;;;;9169606;19;19922;-66
2023/03/30 15:12:50;;;;;;;;;;;16.50;73.40;;;;;;9171368;19;20574;-66
2023/03/30 15:15:56;;;;;;;;;;;16.50;73.40;;;;;;9173622;19;20316;-65
2023/03/30 15:19:02;;;;;;;;;;;16.50;73.30;;;;;;9171123;19;19923;-66
2023/03/30 15:22:14;;;;;;;;;;;16.50;73.30;;;;;;9171550;19;19919;-66
2023/03/30 15:25:19;;;;;;;;;;;16.50;73.30;;;;;;9173301;19;19919;-66
2023/03/30 15:28:25;;;;;;;;;;;16.50;73.20;;;;;;9172783;19;19926;-65
2023/03/30 15:31:29;;;;;;;;;;;16.50;73.20;;;;;;9173119;19;19919;-66
2023/03/30 15:34:35;;;;;;;;;;;16.50;73.20;;;;;;9170820;19;20284;-66
2023/03/30 15:37:51;;;;;;;;;;;16.50;73.20;;;;;;9171642;19;19914;-69
2023/03/30 15:40:57;;;;;;;;;;;16.60;73.20;;;;;;9173727;19;19930;-69
2023/03/30 15:44:10;;;;;;;;;;;16.50;73.10;;;;;;9168760;19;19926;-69
2023/03/30 15:47:18;;;;;;;;;;;16.50;73.20;;;;;;9183180;19;19903;-69
2023/03/30 15:50:24;;;;;;;;;;;16.60;73.20;;;;;;9183810;19;19919;-69
2023/03/30 15:53:37;;;;;;;;;;;16.60;73.20;;;;;;9184234;19;19925;-69
2023/03/30 15:56:42;;;;;;;;;;;16.60;73.20;;;;;;9183938;19;19914;-70
2023/03/30 15:59:49;;;;;;;;;;;16.60;73.10;;;;;;9182435;19;19906;-68
2023/03/30 16:02:56;;;;;;;;;;;16.60;73.10;;;;;;9177727;19;19918;-69
2023/03/30 16:06:02;;;;;;;;;;;16.60;73.10;;;;;;9179520;19;19919;-70
2023/03/30 16:09:08;;;;;;;;;;;16.60;73.10;;;;;;9169325;19;20012;-70
2023/03/30 16:12:15;;;;;;;;;;;16.60;73.70;;;;;;9179990;19;19925;-70
2023/03/30 16:15:20;;;;;;;;;;;16.60;73.00;;;;;;9175031;19;19919;-70
2023/03/30 16:18:25;;;;;;;;;;;16.50;73.00;;;;;;9177449;19;19911;-70
2023/03/30 16:21:29;;;;;;;;;;;16.60;73.00;;;;;;9178141;19;19923;-70
2023/03/30 16:24:37;;;;;;;;;;;16.50;72.90;;;;;;9166540;19;20616;-70
2023/03/30 16:27:41;;;;;;;;;;;16.50;72.90;;;;;;9176024;19;19938;-70
2023/03/30 16:30:48;;;;;;;;;;;16.40;72.90;;;;;;9175423;19;20348;-69
2023/03/30 16:33:52;;;;;;;;;;;16.40;72.90;;;;;;9171546;19;20305;-69
2023/03/30 16:36:58;;;;;;;;;;;16.40;72.90;;;;;;9167887;19;20610;-70
2023/03/30 16:40:11;;;;;;;;;;;16.40;72.90;;;;;;9165263;19;19914;-70
2023/03/30 16:43:17;;;;;;;;;;;16.30;72.90;;;;;;9157319;19;19938;-69
2023/03/30 16:46:21;;;;;;;;;;;16.30;72.90;;;;;;9165196;19;19922;-70
2023/03/30 16:49:27;;;;;;;;;;;16.30;72.90;;;;;;9163650;19;19930;-70
2023/03/30 16:52:32;;;;;;;;;;;16.20;72.90;;;;;;9159041;19;19915;-70
2023/03/30 16:55:40;;;;;;;;;;;16.20;73.20;;;;;;9161068;19;19930;-70
2023/03/30 16:58:44;;;;;;;;;;;16.20;72.90;;;;;;9166163;19;19911;-70
2023/03/30 17:01:51;;;;;;;;;;;16.10;72.90;;;;;;9160611;19;19922;-70
2023/03/30 17:04:55;;;;;;;;;;;16.10;72.90;;;;;;9166760;19;20406;-70
2023/03/30 17:08:04;;;;;;;;;;;16.10;72.90;;;;;;9168512;19;19930;-71
2023/03/30 17:11:12;;;;;;;;;;;16.00;72.90;;;;;;9167162;19;19919;-70
2023/03/30 17:14:18;;;;;;;;;;;16.00;72.90;;;;;;9168874;19;19922;-70
2023/03/30 17:17:22;;;;;;;;;;;15.90;72.80;;;;;;9174191;19;19919;-70
2023/03/30 17:20:31;;;;;;;;;;;15.90;72.90;;;;;;9172306;19;20380;-70
2023/03/30 17:23:35;;;;;;;;;;;15.80;72.80;;;;;;9170284;19;19921;-69
2023/03/30 17:26:43;;;;;;;;;;;15.80;72.90;;;;;;9173870;19;19922;-70
2023/03/30 17:29:47;;;;;;;;;;;15.70;72.90;;;;;;9174329;19;19929;-70
2023/03/30 17:32:53;;;;;;;;;;;15.70;72.90;;;;;;9171632;19;20260;-69
2023/03/30 17:35:59;;;;;;;;;;;15.70;72.90;;;;;;9167706;19;19919;-70
2023/03/30 17:39:06;;;;;;;;;;;15.60;72.80;;;;;;9166077;19;19930;-70
2023/03/30 17:42:11;;;;;;;;;;;15.60;72.90;;;;;;9167007;19;19922;-69
2023/03/30 17:45:18;;;;;;;;;;;15.60;72.90;;;;;;9166631;19;19946;-69
2023/03/30 17:48:24;;;;;;;;;;;15.60;72.90;;;;;;9171531;19;19923;-69
2023/03/30 17:51:30;;;;;;;;;;;15.60;72.90;;;;;;9173021;19;19923;-70
2023/03/30 17:54:34;;;;;;;;;;;15.50;72.80;;;;;;9172877;19;19925;-70
2023/03/30 17:57:42;;;;;;;;;;;15.50;72.80;;;;;;9173445;19;19919;-70
2023/03/30 18:00:47;;;;;;;;;;;15.50;72.80;;;;;;9172444;19;20344;-70
2023/03/30 18:03:53;;;;;;;;;;;15.40;72.80;;;;;;9170795;19;19922;-70
2023/03/30 18:06:56;;;;;;;;;;;15.40;72.90;;;;;;9171042;19;19952;-70
2023/03/30 18:10:03;;;;;;;;;;;15.30;72.80;;;;;;9166270;19;19918;-70
2023/03/30 18:13:09;;;;;;;;;;;15.30;72.80;;;;;;9171674;19;20386;-70
2023/03/30 18:16:16;;;;;;;;;;;15.20;72.70;;;;;;9172781;19;19922;-70
2023/03/30 18:19:20;;;;;;;;;;;15.20;72.80;;;;;;9172514;19;19922;-70
2023/03/30 18:22:26;;;;;;;;;;;15.10;72.80;;;;;;9171409;19;19938;-70
2023/03/30 18:25:31;;;;;;;;;;;15.10;72.80;;;;;;9171785;19;19990;-70
2023/03/30 18:28:41;;;;;;;;;;;15.00;72.90;;;;;;9171713;19;19923;-70